sensor_id;sensor_type;location;lat;lon;timestamp;temperature;humidity
64858;SHT30;51335;51.148;6.950;2023-07-16T00:00:08;17.60;99.99
64858;SHT30;51335;51.148;6.950;2023-07-16T00:00:39;17.63;99.99
64858;SHT30;51335;51.148;6.950;2023-07-16T00:01:09;17.67;99.99
64858;SHT30;51335;51.148;6.950;2023-07-16T00:01:39;17.68;99.99
64858;SHT30;51335;51.148;6.950;2023-07-16T00:02:10;17.68;99.99
64858;SHT30;51335;51.148;6.950;2023-07-16T00:02:40;17.65;99.99
64858;SHT30;51335;51.148;6.950;2023-07-16T00:03:10;17.70;99.99
64858;SHT30;51335;51.148;6.950;2023-07-16T00:03:40;17.70;99.99
64858;SHT30;51335;51.148;6.950;2023-07-16T00:04:11;17.73;99.99
64858;SHT30;51335;51.148;6.950;2023-07-16T00:04:41;17.70;99.99
64858;SHT30;51335;51.148;6.950;2023-07-16T00:05:11;17.73;99.99
64858;SHT30;51335;51.148;6.950;2023-07-16T00:05:42;17.71;99.99
64858;SHT30;51335;51.148;6.950;2023-07-16T00:06:12;17.70;99.99
64858;SHT30;51335;51.148;6.950;2023-07-16T00:06:42;17.73;99.99
64858;SHT30;51335;51.148;6.950;2023-07-16T00:07:12;17.71;99.99
64858;SHT30;51335;51.148;6.950;2023-07-16T00:07:43;17.73;99.99
64858;SHT30;51335;51.148;6.950;2023-07-16T00:08:13;17.77;99.99
64858;SHT30;51335;51.148;6.950;2023-07-16T00:08:43;17.75;99.99
64858;SHT30;51335;51.148;6.950;2023-07-16T00:09:13;17.74;99.99
64858;SHT30;51335;51.148;6.950;2023-07-16T00:09:44;17.78;99.99
64858;SHT30;51335;51.148;6.950;2023-07-16T00:10:14;17.78;99.99
64858;SHT30;51335;51.148;6.950;2023-07-16T00:10:45;17.77;99.99
64858;SHT30;51335;51.148;6.950;2023-07-16T00:11:15;17.77;99.99
64858;SHT30;51335;51.148;6.950;2023-07-16T00:11:45;17.79;99.99
64858;SHT30;51335;51.148;6.950;2023-07-16T00:12:16;17.79;99.99
64858;SHT30;51335;51.148;6.950;2023-07-16T00:12:46;17.85;99.99
64858;SHT30;51335;51.148;6.950;2023-07-16T00:13:16;17.82;99.99
64858;SHT30;51335;51.148;6.950;2023-07-16T00:13:47;17.81;99.99
64858;SHT30;51335;51.148;6.950;2023-07-16T00:14:17;17.82;99.98
64858;SHT30;51335;51.148;6.950;2023-07-16T00:14:48;17.86;99.84
64858;SHT30;51335;51.148;6.950;2023-07-16T00:15:18;17.91;99.45
64858;SHT30;51335;51.148;6.950;2023-07-16T00:15:48;17.95;99.19
64858;SHT30;51335;51.148;6.950;2023-07-16T00:16:18;17.99;98.12
64858;SHT30;51335;51.148;6.950;2023-07-16T00:16:49;18.01;97.82
64858;SHT30;51335;51.148;6.950;2023-07-16T00:17:19;18.03;97.48
64858;SHT30;51335;51.148;6.950;2023-07-16T00:17:49;18.05;97.02
64858;SHT30;51335;51.148;6.950;2023-07-16T00:18:20;18.05;96.93
64858;SHT30;51335;51.148;6.950;2023-07-16T00:18:50;18.09;96.69
64858;SHT30;51335;51.148;6.950;2023-07-16T00:19:20;18.08;96.60
64858;SHT30;51335;51.148;6.950;2023-07-16T00:19:51;18.10;96.49
64858;SHT30;51335;51.148;6.950;2023-07-16T00:20:21;18.10;96.27
64858;SHT30;51335;51.148;6.950;2023-07-16T00:20:51;18.16;95.91
64858;SHT30;51335;51.148;6.950;2023-07-16T00:21:23;18.16;95.60
64858;SHT30;51335;51.148;6.950;2023-07-16T00:21:53;18.19;95.59
64858;SHT30;51335;51.148;6.950;2023-07-16T00:22:24;18.21;95.46
64858;SHT30;51335;51.148;6.950;2023-07-16T00:22:54;18.15;95.38
64858;SHT30;51335;51.148;6.950;2023-07-16T00:23:24;18.16;95.35
64858;SHT30;51335;51.148;6.950;2023-07-16T00:23:54;18.16;95.34
64858;SHT30;51335;51.148;6.950;2023-07-16T00:24:25;18.15;95.20
64858;SHT30;51335;51.148;6.950;2023-07-16T00:24:55;18.17;94.89
64858;SHT30;51335;51.148;6.950;2023-07-16T00:25:25;18.21;94.72
64858;SHT30;51335;51.148;6.950;2023-07-16T00:25:56;18.17;94.67
64858;SHT30;51335;51.148;6.950;2023-07-16T00:26:26;18.17;94.60
64858;SHT30;51335;51.148;6.950;2023-07-16T00:26:57;18.22;94.50
64858;SHT30;51335;51.148;6.950;2023-07-16T00:27:27;18.26;94.34
64858;SHT30;51335;51.148;6.950;2023-07-16T00:27:57;18.25;94.16
64858;SHT30;51335;51.148;6.950;2023-07-16T00:28:29;18.28;93.87
64858;SHT30;51335;51.148;6.950;2023-07-16T00:28:59;18.30;93.79
64858;SHT30;51335;51.148;6.950;2023-07-16T00:29:29;18.32;93.62
64858;SHT30;51335;51.148;6.950;2023-07-16T00:29:59;18.36;93.60
64858;SHT30;51335;51.148;6.950;2023-07-16T00:30:30;18.36;93.42
64858;SHT30;51335;51.148;6.950;2023-07-16T00:31:01;18.33;93.47
64858;SHT30;51335;51.148;6.950;2023-07-16T00:31:31;18.30;93.58
64858;SHT30;51335;51.148;6.950;2023-07-16T00:32:01;18.26;93.70
64858;SHT30;51335;51.148;6.950;2023-07-16T00:32:31;18.25;93.78
64858;SHT30;51335;51.148;6.950;2023-07-16T00:33:02;18.28;93.80
64858;SHT30;51335;51.148;6.950;2023-07-16T00:33:32;18.30;93.49
64858;SHT30;51335;51.148;6.950;2023-07-16T00:34:02;18.29;93.30
64858;SHT30;51335;51.148;6.950;2023-07-16T00:34:33;18.28;93.35
64858;SHT30;51335;51.148;6.950;2023-07-16T00:35:03;18.25;93.48
64858;SHT30;51335;51.148;6.950;2023-07-16T00:35:33;18.23;93.58
64858;SHT30;51335;51.148;6.950;2023-07-16T00:36:04;18.21;93.70
64858;SHT30;51335;51.148;6.950;2023-07-16T00:36:34;18.23;93.53
64858;SHT30;51335;51.148;6.950;2023-07-16T00:37:04;18.26;93.46
64858;SHT30;51335;51.148;6.950;2023-07-16T00:37:35;18.26;93.35
64858;SHT30;51335;51.148;6.950;2023-07-16T00:38:05;18.22;93.30
64858;SHT30;51335;51.148;6.950;2023-07-16T00:38:35;18.19;93.36
64858;SHT30;51335;51.148;6.950;2023-07-16T00:39:05;18.17;93.38
64858;SHT30;51335;51.148;6.950;2023-07-16T00:39:36;18.15;93.40
64858;SHT30;51335;51.148;6.950;2023-07-16T00:40:07;18.15;93.46
64858;SHT30;51335;51.148;6.950;2023-07-16T00:40:37;18.17;93.51
64858;SHT30;51335;51.148;6.950;2023-07-16T00:41:07;18.16;93.49
64858;SHT30;51335;51.148;6.950;2023-07-16T00:41:38;18.12;93.55
64858;SHT30;51335;51.148;6.950;2023-07-16T00:42:08;18.12;93.64
64858;SHT30;51335;51.148;6.950;2023-07-16T00:42:38;18.08;93.79
64858;SHT30;51335;51.148;6.950;2023-07-16T00:43:09;18.08;93.97
64858;SHT30;51335;51.148;6.950;2023-07-16T00:43:39;18.02;93.97
64858;SHT30;51335;51.148;6.950;2023-07-16T00:44:09;17.99;94.09
64858;SHT30;51335;51.148;6.950;2023-07-16T00:44:39;17.99;94.13
64858;SHT30;51335;51.148;6.950;2023-07-16T00:45:13;17.98;94.18
64858;SHT30;51335;51.148;6.950;2023-07-16T00:45:45;18.01;94.21
64858;SHT30;51335;51.148;6.950;2023-07-16T00:46:15;17.95;94.25
64858;SHT30;51335;51.148;6.950;2023-07-16T00:46:46;17.95;94.34
64858;SHT30;51335;51.148;6.950;2023-07-16T00:47:16;17.89;94.43
64858;SHT30;51335;51.148;6.950;2023-07-16T00:47:47;17.94;94.47
64858;SHT30;51335;51.148;6.950;2023-07-16T00:48:17;17.91;94.43
64858;SHT30;51335;51.148;6.950;2023-07-16T00:48:48;17.89;94.53
64858;SHT30;51335;51.148;6.950;2023-07-16T00:49:19;17.86;94.71
64858;SHT30;51335;51.148;6.950;2023-07-16T00:49:50;17.85;94.83
64858;SHT30;51335;51.148;6.950;2023-07-16T00:50:20;17.84;94.90
64858;SHT30;51335;51.148;6.950;2023-07-16T00:50:52;17.84;94.86
64858;SHT30;51335;51.148;6.950;2023-07-16T00:51:24;17.84;95.03
64858;SHT30;51335;51.148;6.950;2023-07-16T00:51:56;17.81;94.92
64858;SHT30;51335;51.148;6.950;2023-07-16T00:52:27;17.81;94.92
64858;SHT30;51335;51.148;6.950;2023-07-16T00:52:57;17.79;94.92
64858;SHT30;51335;51.148;6.950;2023-07-16T00:53:28;17.81;95.01
64858;SHT30;51335;51.148;6.950;2023-07-16T00:53:59;17.79;94.99
64858;SHT30;51335;51.148;6.950;2023-07-16T00:54:31;17.79;95.14
64858;SHT30;51335;51.148;6.950;2023-07-16T00:55:01;17.78;95.19
64858;SHT30;51335;51.148;6.950;2023-07-16T00:55:32;17.75;95.24
64858;SHT30;51335;51.148;6.950;2023-07-16T00:56:03;17.75;95.24
64858;SHT30;51335;51.148;6.950;2023-07-16T00:56:33;17.73;95.25
64858;SHT30;51335;51.148;6.950;2023-07-16T00:57:05;17.71;95.25
64858;SHT30;51335;51.148;6.950;2023-07-16T00:57:35;17.71;95.28
64858;SHT30;51335;51.148;6.950;2023-07-16T00:58:06;17.77;95.41
64858;SHT30;51335;51.148;6.950;2023-07-16T00:58:37;17.75;95.30
64858;SHT30;51335;51.148;6.950;2023-07-16T00:59:07;17.74;95.32
64858;SHT30;51335;51.148;6.950;2023-07-16T00:59:37;17.73;95.35
64858;SHT30;51335;51.148;6.950;2023-07-16T01:00:08;17.79;95.26
64858;SHT30;51335;51.148;6.950;2023-07-16T01:00:40;17.77;95.31
64858;SHT30;51335;51.148;6.950;2023-07-16T01:01:10;17.78;95.28
64858;SHT30;51335;51.148;6.950;2023-07-16T01:01:41;17.79;95.33
64858;SHT30;51335;51.148;6.950;2023-07-16T01:02:11;17.78;95.41
64858;SHT30;51335;51.148;6.950;2023-07-16T01:02:41;17.78;95.33
64858;SHT30;51335;51.148;6.950;2023-07-16T01:03:13;17.75;95.46
64858;SHT30;51335;51.148;6.950;2023-07-16T01:03:44;17.79;95.39
64858;SHT30;51335;51.148;6.950;2023-07-16T01:04:14;17.82;95.30
64858;SHT30;51335;51.148;6.950;2023-07-16T01:04:44;17.82;95.24
64858;SHT30;51335;51.148;6.950;2023-07-16T01:05:15;17.82;95.20
64858;SHT30;51335;51.148;6.950;2023-07-16T01:05:51;17.81;95.27
64858;SHT30;51335;51.148;6.950;2023-07-16T01:06:38;17.78;95.32
64858;SHT30;51335;51.148;6.950;2023-07-16T01:07:11;17.79;95.32
64858;SHT30;51335;51.148;6.950;2023-07-16T01:07:54;17.79;95.27
64858;SHT30;51335;51.148;6.950;2023-07-16T01:08:31;17.75;95.38
64858;SHT30;51335;51.148;6.950;2023-07-16T01:09:07;17.73;95.38
64858;SHT30;51335;51.148;6.950;2023-07-16T01:09:41;17.71;95.50
64858;SHT30;51335;51.148;6.950;2023-07-16T01:10:12;17.71;95.45
64858;SHT30;51335;51.148;6.950;2023-07-16T01:10:43;17.73;95.48
64858;SHT30;51335;51.148;6.950;2023-07-16T01:11:13;17.67;95.54
64858;SHT30;51335;51.148;6.950;2023-07-16T01:11:45;17.65;95.57
64858;SHT30;51335;51.148;6.950;2023-07-16T01:12:17;17.68;95.64
64858;SHT30;51335;51.148;6.950;2023-07-16T01:12:53;17.68;95.60
64858;SHT30;51335;51.148;6.950;2023-07-16T01:13:25;17.74;95.44
64858;SHT30;51335;51.148;6.950;2023-07-16T01:13:56;17.71;95.32
64858;SHT30;51335;51.148;6.950;2023-07-16T01:14:27;17.71;95.28
64858;SHT30;51335;51.148;6.950;2023-07-16T01:14:58;17.68;95.33
64858;SHT30;51335;51.148;6.950;2023-07-16T01:15:29;17.65;95.43
64858;SHT30;51335;51.148;6.950;2023-07-16T01:15:59;17.63;95.48
64858;SHT30;51335;51.148;6.950;2023-07-16T01:16:29;17.64;95.59
64858;SHT30;51335;51.148;6.950;2023-07-16T01:17:05;17.63;95.63
64858;SHT30;51335;51.148;6.950;2023-07-16T01:17:35;17.61;95.72
64858;SHT30;51335;51.148;6.950;2023-07-16T01:18:06;17.61;95.67
64858;SHT30;51335;51.148;6.950;2023-07-16T01:18:36;17.55;95.71
64858;SHT30;51335;51.148;6.950;2023-07-16T01:19:06;17.60;95.75
64858;SHT30;51335;51.148;6.950;2023-07-16T01:19:37;17.57;95.78
64858;SHT30;51335;51.148;6.950;2023-07-16T01:20:07;17.55;95.80
64858;SHT30;51335;51.148;6.950;2023-07-16T01:20:38;17.55;95.87
64858;SHT30;51335;51.148;6.950;2023-07-16T01:21:08;17.53;95.85
64858;SHT30;51335;51.148;6.950;2023-07-16T01:30:02;17.38;96.56
64858;SHT30;51335;51.148;6.950;2023-07-16T01:30:32;17.36;96.61
64858;SHT30;51335;51.148;6.950;2023-07-16T01:31:03;17.37;96.82
64858;SHT30;51335;51.148;6.950;2023-07-16T01:31:34;17.38;96.94
64858;SHT30;51335;51.148;6.950;2023-07-16T01:32:07;17.41;97.01
64858;SHT30;51335;51.148;6.950;2023-07-16T01:32:37;17.41;97.07
64858;SHT30;51335;51.148;6.950;2023-07-16T01:33:08;17.40;97.14
64858;SHT30;51335;51.148;6.950;2023-07-16T01:33:41;17.48;97.23
64858;SHT30;51335;51.148;6.950;2023-07-16T01:34:13;17.53;97.10
64858;SHT30;51335;51.148;6.950;2023-07-16T01:34:44;17.60;96.92
64858;SHT30;51335;51.148;6.950;2023-07-16T01:35:15;17.57;96.77
64858;SHT30;51335;51.148;6.950;2023-07-16T01:35:47;17.58;96.78
64858;SHT30;51335;51.148;6.950;2023-07-16T01:36:18;17.58;96.75
64858;SHT30;51335;51.148;6.950;2023-07-16T01:36:49;17.60;96.75
64858;SHT30;51335;51.148;6.950;2023-07-16T01:37:20;17.63;96.71
64858;SHT30;51335;51.148;6.950;2023-07-16T01:37:50;17.63;96.60
64858;SHT30;51335;51.148;6.950;2023-07-16T01:38:20;17.65;96.48
64858;SHT30;51335;51.148;6.950;2023-07-16T01:38:51;17.63;96.38
64858;SHT30;51335;51.148;6.950;2023-07-16T01:39:22;17.64;96.39
64858;SHT30;51335;51.148;6.950;2023-07-16T01:39:52;17.61;96.42
64858;SHT30;51335;51.148;6.950;2023-07-16T01:40:23;17.64;96.33
64858;SHT30;51335;51.148;6.950;2023-07-16T01:40:53;17.64;96.28
64858;SHT30;51335;51.148;6.950;2023-07-16T01:41:23;17.65;96.17
64858;SHT30;51335;51.148;6.950;2023-07-16T01:41:54;17.64;96.13
64858;SHT30;51335;51.148;6.950;2023-07-16T01:42:24;17.70;95.97
64858;SHT30;51335;51.148;6.950;2023-07-16T01:42:54;17.73;95.26
64858;SHT30;51335;51.148;6.950;2023-07-16T01:43:24;17.75;94.92
64858;SHT30;51335;51.148;6.950;2023-07-16T01:43:55;17.75;94.65
64858;SHT30;51335;51.148;6.950;2023-07-16T01:44:25;17.78;94.57
64858;SHT30;51335;51.148;6.950;2023-07-16T01:44:55;17.78;94.63
64858;SHT30;51335;51.148;6.950;2023-07-16T01:45:25;17.79;94.58
64858;SHT30;51335;51.148;6.950;2023-07-16T01:45:56;17.79;94.53
64858;SHT30;51335;51.148;6.950;2023-07-16T01:46:26;17.81;94.47
64858;SHT30;51335;51.148;6.950;2023-07-16T01:47:10;17.82;94.35
64858;SHT30;51335;51.148;6.950;2023-07-16T01:48:31;17.77;94.40
64858;SHT30;51335;51.148;6.950;2023-07-16T01:49:02;17.77;94.49
64858;SHT30;51335;51.148;6.950;2023-07-16T01:49:32;17.75;94.63
64858;SHT30;51335;51.148;6.950;2023-07-16T01:50:03;17.74;94.61
64858;SHT30;51335;51.148;6.950;2023-07-16T01:50:34;17.74;94.59
64858;SHT30;51335;51.148;6.950;2023-07-16T01:51:04;17.70;94.57
64858;SHT30;51335;51.148;6.950;2023-07-16T01:51:35;17.68;94.69
64858;SHT30;51335;51.148;6.950;2023-07-16T01:52:06;17.68;94.77
64858;SHT30;51335;51.148;6.950;2023-07-16T01:52:36;17.65;94.72
64858;SHT30;51335;51.148;6.950;2023-07-16T01:53:07;17.60;94.78
64858;SHT30;51335;51.148;6.950;2023-07-16T01:53:37;17.60;94.79
64858;SHT30;51335;51.148;6.950;2023-07-16T01:54:07;17.55;94.89
64858;SHT30;51335;51.148;6.950;2023-07-16T01:54:37;17.50;94.95
64858;SHT30;51335;51.148;6.950;2023-07-16T01:55:08;17.50;95.01
64858;SHT30;51335;51.148;6.950;2023-07-16T01:55:38;17.47;95.10
64858;SHT30;51335;51.148;6.950;2023-07-16T01:56:08;17.43;95.17
64858;SHT30;51335;51.148;6.950;2023-07-16T01:56:39;17.40;95.26
64858;SHT30;51335;51.148;6.950;2023-07-16T01:57:09;17.38;95.35
64858;SHT30;51335;51.148;6.950;2023-07-16T01:57:39;17.36;95.37
64858;SHT30;51335;51.148;6.950;2023-07-16T01:58:09;17.36;95.49
64858;SHT30;51335;51.148;6.950;2023-07-16T01:58:40;17.34;95.53
64858;SHT30;51335;51.148;6.950;2023-07-16T01:59:10;17.34;95.51
64858;SHT30;51335;51.148;6.950;2023-07-16T01:59:40;17.33;95.65
64858;SHT30;51335;51.148;6.950;2023-07-16T02:00:11;17.31;95.70
64858;SHT30;51335;51.148;6.950;2023-07-16T02:00:42;17.30;95.85
64858;SHT30;51335;51.148;6.950;2023-07-16T02:01:12;17.30;95.83
64858;SHT30;51335;51.148;6.950;2023-07-16T02:01:42;17.30;95.89
64858;SHT30;51335;51.148;6.950;2023-07-16T02:02:12;17.34;95.82
64858;SHT30;51335;51.148;6.950;2023-07-16T02:02:43;17.34;95.82
64858;SHT30;51335;51.148;6.950;2023-07-16T02:03:13;17.40;95.73
64858;SHT30;51335;51.148;6.950;2023-07-16T02:03:43;17.41;95.68
64858;SHT30;51335;51.148;6.950;2023-07-16T02:04:14;17.44;95.61
64858;SHT30;51335;51.148;6.950;2023-07-16T02:04:44;17.45;95.49
64858;SHT30;51335;51.148;6.950;2023-07-16T02:05:15;17.47;95.42
64858;SHT30;51335;51.148;6.950;2023-07-16T02:05:45;17.50;95.43
64858;SHT30;51335;51.148;6.950;2023-07-16T02:06:15;17.51;95.30
64858;SHT30;51335;51.148;6.950;2023-07-16T02:06:46;17.53;95.25
64858;SHT30;51335;51.148;6.950;2023-07-16T02:07:16;17.55;95.13
64858;SHT30;51335;51.148;6.950;2023-07-16T02:07:46;17.53;95.12
64858;SHT30;51335;51.148;6.950;2023-07-16T02:08:17;17.53;95.06
64858;SHT30;51335;51.148;6.950;2023-07-16T02:08:47;17.55;95.07
64858;SHT30;51335;51.148;6.950;2023-07-16T02:09:18;17.54;94.97
64858;SHT30;51335;51.148;6.950;2023-07-16T02:09:48;17.55;94.97
64858;SHT30;51335;51.148;6.950;2023-07-16T02:10:18;17.57;94.81
64858;SHT30;51335;51.148;6.950;2023-07-16T02:10:49;17.60;94.77
64858;SHT30;51335;51.148;6.950;2023-07-16T02:11:19;17.63;94.63
64858;SHT30;51335;51.148;6.950;2023-07-16T02:11:50;17.63;94.63
64858;SHT30;51335;51.148;6.950;2023-07-16T02:12:20;17.63;94.59
64858;SHT30;51335;51.148;6.950;2023-07-16T02:12:50;17.65;94.54
64858;SHT30;51335;51.148;6.950;2023-07-16T02:13:20;17.64;94.39
64858;SHT30;51335;51.148;6.950;2023-07-16T02:13:51;17.65;94.32
64858;SHT30;51335;51.148;6.950;2023-07-16T02:14:21;17.68;94.31
64858;SHT30;51335;51.148;6.950;2023-07-16T02:14:51;17.64;94.27
64858;SHT30;51335;51.148;6.950;2023-07-16T02:15:21;17.68;94.32
64858;SHT30;51335;51.148;6.950;2023-07-16T02:15:52;17.65;94.23
64858;SHT30;51335;51.148;6.950;2023-07-16T02:16:22;17.63;94.25
64858;SHT30;51335;51.148;6.950;2023-07-16T02:16:52;17.67;94.15
64858;SHT30;51335;51.148;6.950;2023-07-16T02:17:22;17.67;94.14
64858;SHT30;51335;51.148;6.950;2023-07-16T02:17:53;17.70;94.08
64858;SHT30;51335;51.148;6.950;2023-07-16T02:18:23;17.65;93.99
64858;SHT30;51335;51.148;6.950;2023-07-16T02:18:53;17.61;93.96
64858;SHT30;51335;51.148;6.950;2023-07-16T02:19:23;17.63;93.95
64858;SHT30;51335;51.148;6.950;2023-07-16T02:19:54;17.60;93.94
64858;SHT30;51335;51.148;6.950;2023-07-16T02:20:24;17.57;93.99
64858;SHT30;51335;51.148;6.950;2023-07-16T02:20:54;17.60;93.97
64858;SHT30;51335;51.148;6.950;2023-07-16T02:21:24;17.57;93.89
64858;SHT30;51335;51.148;6.950;2023-07-16T02:21:55;17.61;93.71
64858;SHT30;51335;51.148;6.950;2023-07-16T02:22:25;17.63;93.46
64858;SHT30;51335;51.148;6.950;2023-07-16T02:22:55;17.63;93.35
64858;SHT30;51335;51.148;6.950;2023-07-16T02:23:25;17.64;93.21
64858;SHT30;51335;51.148;6.950;2023-07-16T02:23:56;17.58;93.24
64858;SHT30;51335;51.148;6.950;2023-07-16T02:24:26;17.58;93.27
64858;SHT30;51335;51.148;6.950;2023-07-16T02:24:56;17.51;93.32
64858;SHT30;51335;51.148;6.950;2023-07-16T02:25:27;17.51;93.41
64858;SHT30;51335;51.148;6.950;2023-07-16T02:25:57;17.54;93.42
64858;SHT30;51335;51.148;6.950;2023-07-16T02:26:27;17.50;93.38
64858;SHT30;51335;51.148;6.950;2023-07-16T02:26:57;17.53;93.36
64858;SHT30;51335;51.148;6.950;2023-07-16T02:27:28;17.48;93.32
64858;SHT30;51335;51.148;6.950;2023-07-16T02:27:58;17.48;93.31
64858;SHT30;51335;51.148;6.950;2023-07-16T02:28:28;17.45;93.31
64858;SHT30;51335;51.148;6.950;2023-07-16T02:28:59;17.44;93.38
64858;SHT30;51335;51.148;6.950;2023-07-16T02:29:31;17.44;93.44
64858;SHT30;51335;51.148;6.950;2023-07-16T02:30:02;17.43;93.47
64858;SHT30;51335;51.148;6.950;2023-07-16T02:30:32;17.41;93.50
64858;SHT30;51335;51.148;6.950;2023-07-16T02:31:03;17.40;93.53
64858;SHT30;51335;51.148;6.950;2023-07-16T02:31:33;17.40;93.47
64858;SHT30;51335;51.148;6.950;2023-07-16T02:32:03;17.38;93.50
64858;SHT30;51335;51.148;6.950;2023-07-16T02:32:34;17.38;93.44
64858;SHT30;51335;51.148;6.950;2023-07-16T02:33:04;17.34;93.41
64858;SHT30;51335;51.148;6.950;2023-07-16T02:33:34;17.41;93.18
64858;SHT30;51335;51.148;6.950;2023-07-16T02:34:05;17.40;93.10
64858;SHT30;51335;51.148;6.950;2023-07-16T02:34:35;17.40;93.07
64858;SHT30;51335;51.148;6.950;2023-07-16T02:35:06;17.34;93.09
64858;SHT30;51335;51.148;6.950;2023-07-16T02:35:36;17.34;93.07
64858;SHT30;51335;51.148;6.950;2023-07-16T02:36:06;17.34;93.08
64858;SHT30;51335;51.148;6.950;2023-07-16T02:36:36;17.38;92.95
64858;SHT30;51335;51.148;6.950;2023-07-16T02:37:07;17.34;92.94
64858;SHT30;51335;51.148;6.950;2023-07-16T02:37:37;17.28;92.99
64858;SHT30;51335;51.148;6.950;2023-07-16T02:38:07;17.30;93.10
64858;SHT30;51335;51.148;6.950;2023-07-16T02:38:37;17.28;93.05
64858;SHT30;51335;51.148;6.950;2023-07-16T02:39:08;17.30;93.01
64858;SHT30;51335;51.148;6.950;2023-07-16T02:39:38;17.30;92.88
64858;SHT30;51335;51.148;6.950;2023-07-16T02:40:09;17.31;92.87
64858;SHT30;51335;51.148;6.950;2023-07-16T02:40:46;17.31;92.93
64858;SHT30;51335;51.148;6.950;2023-07-16T02:41:16;17.34;92.72
64858;SHT30;51335;51.148;6.950;2023-07-16T02:41:46;17.28;92.60
64858;SHT30;51335;51.148;6.950;2023-07-16T02:42:17;17.28;92.56
64858;SHT30;51335;51.148;6.950;2023-07-16T02:42:47;17.27;92.61
64858;SHT30;51335;51.148;6.950;2023-07-16T02:43:17;17.30;92.54
64858;SHT30;51335;51.148;6.950;2023-07-16T02:43:48;17.28;92.55
64858;SHT30;51335;51.148;6.950;2023-07-16T02:44:28;17.27;92.58
64858;SHT30;51335;51.148;6.950;2023-07-16T02:44:58;17.24;92.63
64858;SHT30;51335;51.148;6.950;2023-07-16T02:45:29;17.20;92.72
64858;SHT30;51335;51.148;6.950;2023-07-16T02:45:59;17.20;92.78
64858;SHT30;51335;51.148;6.950;2023-07-16T02:46:29;17.17;92.71
64858;SHT30;51335;51.148;6.950;2023-07-16T02:46:59;17.16;92.73
64858;SHT30;51335;51.148;6.950;2023-07-16T02:47:30;17.15;92.73
64858;SHT30;51335;51.148;6.950;2023-07-16T02:48:00;17.13;92.69
64858;SHT30;51335;51.148;6.950;2023-07-16T02:48:30;17.13;92.61
64858;SHT30;51335;51.148;6.950;2023-07-16T02:49:02;17.19;92.46
64858;SHT30;51335;51.148;6.950;2023-07-16T02:49:33;17.17;92.32
64858;SHT30;51335;51.148;6.950;2023-07-16T02:50:03;17.15;92.37
64858;SHT30;51335;51.148;6.950;2023-07-16T02:50:37;17.13;92.43
64858;SHT30;51335;51.148;6.950;2023-07-16T02:51:07;17.10;92.47
64858;SHT30;51335;51.148;6.950;2023-07-16T02:51:37;17.09;92.53
64858;SHT30;51335;51.148;6.950;2023-07-16T02:52:08;17.10;92.31
64858;SHT30;51335;51.148;6.950;2023-07-16T02:52:38;17.07;92.38
64858;SHT30;51335;51.148;6.950;2023-07-16T02:53:08;17.03;92.43
64858;SHT30;51335;51.148;6.950;2023-07-16T02:53:39;16.99;92.51
64858;SHT30;51335;51.148;6.950;2023-07-16T02:54:09;17.00;92.56
64858;SHT30;51335;51.148;6.950;2023-07-16T02:54:39;16.96;92.59
64858;SHT30;51335;51.148;6.950;2023-07-16T02:55:09;16.97;92.58
64858;SHT30;51335;51.148;6.950;2023-07-16T02:55:40;16.93;92.64
64858;SHT30;51335;51.148;6.950;2023-07-16T02:56:10;16.92;92.70
64858;SHT30;51335;51.148;6.950;2023-07-16T02:56:40;16.99;92.55
64858;SHT30;51335;51.148;6.950;2023-07-16T02:57:10;16.96;92.21
64858;SHT30;51335;51.148;6.950;2023-07-16T02:57:41;17.00;92.07
64858;SHT30;51335;51.148;6.950;2023-07-16T02:58:11;17.00;92.05
64858;SHT30;51335;51.148;6.950;2023-07-16T02:58:41;16.99;91.99
64858;SHT30;51335;51.148;6.950;2023-07-16T02:59:11;17.02;91.97
64858;SHT30;51335;51.148;6.950;2023-07-16T02:59:42;17.03;91.80
64858;SHT30;51335;51.148;6.950;2023-07-16T03:00:12;17.06;91.59
64858;SHT30;51335;51.148;6.950;2023-07-16T03:00:42;17.02;91.52
64858;SHT30;51335;51.148;6.950;2023-07-16T03:01:13;17.00;91.55
64858;SHT30;51335;51.148;6.950;2023-07-16T03:01:43;17.00;91.42
64858;SHT30;51335;51.148;6.950;2023-07-16T03:02:13;17.02;91.29
64858;SHT30;51335;51.148;6.950;2023-07-16T03:02:43;16.97;91.32
64858;SHT30;51335;51.148;6.950;2023-07-16T03:03:14;16.97;91.32
64858;SHT30;51335;51.148;6.950;2023-07-16T03:03:44;16.95;91.41
64858;SHT30;51335;51.148;6.950;2023-07-16T03:04:14;16.93;91.46
64858;SHT30;51335;51.148;6.950;2023-07-16T03:04:44;16.89;91.53
64858;SHT30;51335;51.148;6.950;2023-07-16T03:05:15;16.92;91.53
64858;SHT30;51335;51.148;6.950;2023-07-16T03:05:46;16.93;91.47
64858;SHT30;51335;51.148;6.950;2023-07-16T03:06:16;16.92;91.52
64858;SHT30;51335;51.148;6.950;2023-07-16T03:06:46;16.89;91.47
64858;SHT30;51335;51.148;6.950;2023-07-16T03:07:17;16.86;91.48
64858;SHT30;51335;51.148;6.950;2023-07-16T03:07:47;16.85;91.51
64858;SHT30;51335;51.148;6.950;2023-07-16T03:08:17;16.88;91.46
64858;SHT30;51335;51.148;6.950;2023-07-16T03:08:47;16.83;91.34
64858;SHT30;51335;51.148;6.950;2023-07-16T03:09:18;16.80;91.39
64858;SHT30;51335;51.148;6.950;2023-07-16T03:09:48;16.75;91.46
64858;SHT30;51335;51.148;6.950;2023-07-16T03:10:20;16.78;91.50
64858;SHT30;51335;51.148;6.950;2023-07-16T03:10:50;16.76;91.58
64858;SHT30;51335;51.148;6.950;2023-07-16T03:11:20;16.72;91.66
64858;SHT30;51335;51.148;6.950;2023-07-16T03:11:51;16.72;91.78
64858;SHT30;51335;51.148;6.950;2023-07-16T03:12:21;16.75;91.66
64858;SHT30;51335;51.148;6.950;2023-07-16T03:12:51;16.76;91.53
64858;SHT30;51335;51.148;6.950;2023-07-16T03:13:22;16.73;91.48
64858;SHT30;51335;51.148;6.950;2023-07-16T03:13:52;16.72;91.49
64858;SHT30;51335;51.148;6.950;2023-07-16T03:14:22;16.69;91.56
64858;SHT30;51335;51.148;6.950;2023-07-16T03:14:52;16.65;91.62
64858;SHT30;51335;51.148;6.950;2023-07-16T03:15:23;16.61;91.63
64858;SHT30;51335;51.148;6.950;2023-07-16T03:15:53;16.59;91.67
64858;SHT30;51335;51.148;6.950;2023-07-16T03:16:23;16.62;91.67
64858;SHT30;51335;51.148;6.950;2023-07-16T03:16:53;16.58;91.73
64858;SHT30;51335;51.148;6.950;2023-07-16T03:17:24;16.58;91.77
64858;SHT30;51335;51.148;6.950;2023-07-16T03:17:54;16.61;91.78
64858;SHT30;51335;51.148;6.950;2023-07-16T03:18:28;16.59;91.75
64858;SHT30;51335;51.148;6.950;2023-07-16T03:18:58;16.59;91.66
64858;SHT30;51335;51.148;6.950;2023-07-16T03:19:28;16.62;91.56
64858;SHT30;51335;51.148;6.950;2023-07-16T03:19:59;16.68;91.29
64858;SHT30;51335;51.148;6.950;2023-07-16T03:20:29;16.68;91.10
64858;SHT30;51335;51.148;6.950;2023-07-16T03:20:59;16.64;91.09
64858;SHT30;51335;51.148;6.950;2023-07-16T03:21:29;16.61;91.13
64858;SHT30;51335;51.148;6.950;2023-07-16T03:22:00;16.61;91.11
64858;SHT30;51335;51.148;6.950;2023-07-16T03:22:30;16.62;91.02
64858;SHT30;51335;51.148;6.950;2023-07-16T03:23:00;16.58;90.98